Time;durP1;ratioP1;P1;durP2;ratioP2;P2;SDS_P1;SDS_P2;PMS_P1;PMS_P2;Temp;Humidity;BMP_temperature;BMP_pressure;BME280_temperature;BME280_humidity;BME280_pressure;Samples;Min_cycle;Max_cycle;Signal;HPM_P1;HPM_P2
2021/08/29 00:00:33;;;;;;;14.30;12.90;;;;;;;20.06;100.00;94234.75;5073692;28;20452;-81
2021/08/29 00:03:00;;;;;;;18.23;12.07;;;;;;;20.10;100.00;94245.81;5073614;28;20437;-81
2021/08/29 00:05:27;;;;;;;14.83;13.23;;;;;;;20.12;100.00;94233.09;5073737;28;20850;-80
2021/08/29 00:07:54;;;;;;;14.27;12.43;;;;;;;20.14;100.00;94236.38;5073279;28;20524;-81
2021/08/29 00:10:21;;;;;;;19.17;12.87;;;;;;;20.17;100.00;94232.47;5074055;28;20471;-81
2021/08/29 00:22:54;;;;;;;15.10;12.07;;;;;;;20.04;100.00;94220.00;5072288;28;20448;-82
2021/08/29 00:25:21;;;;;;;22.53;12.97;;;;;;;20.06;100.00;94213.44;5022021;28;20984;-82
2021/08/29 00:27:48;;;;;;;14.97;13.43;;;;;;;20.00;100.00;94210.78;5073272;28;20535;-82
2021/08/29 00:30:15;;;;;;;17.70;13.00;;;;;;;19.99;100.00;94219.78;5073672;28;20910;-82
2021/08/29 00:32:43;;;;;;;21.40;14.67;;;;;;;20.00;100.00;94211.59;5073370;28;20532;-82
2021/08/29 00:35:10;;;;;;;14.90;13.50;;;;;;;20.01;100.00;94215.91;5073019;28;20443;-82
2021/08/29 00:37:37;;;;;;;15.63;14.00;;;;;;;20.02;100.00;94219.38;5054797;28;20438;-82
2021/08/29 00:40:07;;;;;;;17.97;13.80;;;;;;;20.04;100.00;94217.31;5072946;28;20945;-82
2021/08/29 00:42:34;;;;;;;17.47;13.20;;;;;;;20.06;100.00;94220.59;5072916;28;20530;-82
2021/08/29 00:45:01;;;;;;;18.97;13.83;;;;;;;19.96;100.00;94220.19;5073457;28;20517;-82
2021/08/29 00:47:28;;;;;;;19.57;13.40;;;;;;;19.96;100.00;94223.69;5054518;28;20532;-82
2021/08/29 00:49:55;;;;;;;15.80;12.97;;;;;;;19.76;100.00;94220.16;5054525;28;20493;-82
2021/08/29 00:52:22;;;;;;;19.60;14.40;;;;;;;19.79;100.00;94212.59;5073475;28;20433;-82
2021/08/29 00:54:48;;;;;;;16.60;12.93;;;;;;;19.83;100.00;94213.00;5038219;28;20532;-82
2021/08/29 00:57:17;;;;;;;14.83;13.17;;;;;;;19.90;100.00;94216.47;5073323;28;20476;-82
2021/08/29 00:59:44;;;;;;;15.37;13.77;;;;;;;19.93;100.00;94212.59;5072882;28;20449;-82
2021/08/29 01:02:13;;;;;;;14.43;13.03;;;;;;;19.97;100.00;94213.84;5072711;28;20437;-82
2021/08/29 01:04:47;;;;;;;18.43;13.80;;;;;;;19.99;100.00;94212.63;5072689;28;20789;-81
2021/08/29 01:07:23;;;;;;;14.23;12.83;;;;;;;19.99;100.00;94212.63;5072699;28;20519;-82
2021/08/29 01:09:55;;;;;;;16.60;14.90;;;;;;;19.92;100.00;94208.28;5072547;28;20468;-82
2021/08/29 01:12:25;;;;;;;23.27;14.90;;;;;;;19.89;100.00;94211.34;5072716;28;20451;-81
2021/08/29 01:14:54;;;;;;;17.40;14.40;;;;;;;19.91;100.00;94215.47;5073082;28;20929;-82
2021/08/29 01:17:26;;;;;;;21.00;15.00;;;;;;;19.90;100.00;94205.00;5054515;28;20812;-82
2021/08/29 01:20:02;;;;;;;19.80;15.53;;;;;;;19.92;100.00;94206.44;5054519;28;20816;-82
2021/08/29 01:22:30;;;;;;;16.23;14.53;;;;;;;19.92;100.00;94202.97;5072597;28;20519;-82
2021/08/29 01:24:57;;;;;;;16.17;14.40;;;;;;;19.91;100.00;94204.81;5072441;28;20793;-82
2021/08/29 01:27:30;;;;;;;23.17;16.20;;;;;;;19.93;100.00;94205.41;5072790;28;20976;-82
2021/08/29 01:30:01;;;;;;;20.07;16.37;;;;;;;19.95;100.00;94199.88;5021309;28;20832;-82
2021/08/29 01:32:28;;;;;;;18.90;15.57;;;;;;;20.02;100.00;94214.88;5072569;28;20439;-82
2021/08/29 01:34:56;;;;;;;21.13;15.67;;;;;;;20.10;100.00;94206.66;5076350;28;20439;-82
2021/08/29 01:37:23;;;;;;;23.47;15.03;;;;;;;20.18;100.00;94204.81;5076180;28;20429;-82
2021/08/29 01:39:51;;;;;;;18.30;14.13;;;;;;;20.23;100.00;94221.81;5076478;28;20455;-81
2021/08/29 01:42:19;;;;;;;19.03;16.27;;;;;;;20.27;100.00;94223.06;5076695;28;20520;-82
2021/08/29 01:44:47;;;;;;;20.60;16.73;;;;;;;20.27;100.00;94231.06;5075832;28;20512;-82
2021/08/29 01:47:18;;;;;;;22.30;18.33;;;;;;;20.19;100.00;94228.59;5076069;28;20444;-82
2021/08/29 01:49:46;;;;;;;23.20;16.70;;;;;;;20.12;100.00;94227.78;5076310;28;20433;-82
2021/08/29 01:52:14;;;;;;;20.40;16.60;;;;;;;19.97;100.00;94225.31;5075673;28;20924;-82
2021/08/29 01:54:41;;;;;;;36.13;17.77;;;;;;;19.92;100.00;94224.25;5075735;28;20466;-82
2021/08/29 01:57:12;;;;;;;27.43;19.70;;;;;;;19.84;100.00;94235.13;5076043;28;20468;-82
2021/08/29 01:59:39;;;;;;;24.30;19.23;;;;;;;19.71;100.00;94238.59;5075917;28;20441;-82
2021/08/29 02:02:07;;;;;;;28.97;22.07;;;;;;;19.58;100.00;94246.53;5075536;28;20428;-82
2021/08/29 02:04:36;;;;;;;30.90;22.80;;;;;;;19.45;100.00;94242.78;5075909;28;20463;-82
2021/08/29 02:07:19;;;;;;;33.40;25.17;;;;;;;19.37;100.00;94252.78;5075726;28;20803;-82
2021/08/29 02:09:51;;;;;;;26.47;22.70;;;;;;;19.37;100.00;94250.09;5075713;28;20427;-82
2021/08/29 02:12:18;;;;;;;30.57;22.80;;;;;;;19.28;100.00;94241.50;5075373;28;20940;-82
2021/08/29 02:14:50;;;;;;;30.80;22.47;;;;;;;19.31;100.00;94242.94;5075558;28;20922;-82
2021/08/29 02:17:17;;;;;;;28.93;23.40;;;;;;;19.31;100.00;94241.09;5075968;28;20452;-82
2021/08/29 02:19:49;;;;;;;27.17;22.07;;;;;;;19.29;100.00;94247.63;5040554;28;20448;-82
2021/08/29 02:22:16;;;;;;;32.50;24.50;;;;;;;19.29;100.00;94251.13;5075173;28;20519;-82
2021/08/29 02:24:43;;;;;;;30.70;22.20;;;;;;;19.24;100.00;94244.75;5075138;28;20440;-82
2021/08/29 02:27:11;;;;;;;26.43;21.50;;;;;;;19.25;100.00;94241.88;5075059;28;20437;-81
2021/08/29 02:29:39;;;;;;;36.57;22.40;;;;;;;19.29;100.00;94247.63;5075721;28;20519;-82
2021/08/29 02:32:09;;;;;;;25.20;21.80;;;;;;;19.34;100.00;94247.84;5056895;28;20479;-81
2021/08/29 02:34:37;;;;;;;30.03;23.37;;;;;;;19.38;100.00;94236.63;5057005;28;20454;-82
2021/08/29 02:37:07;;;;;;;27.47;22.33;;;;;;;19.36;100.00;94240.50;5075083;28;20432;-82
2021/08/29 02:39:37;;;;;;;27.13;21.60;;;;;;;19.39;100.00;94237.47;5075155;28;20483;-82
2021/08/29 02:42:05;;;;;;;29.27;23.47;;;;;;;19.46;100.00;94246.28;5074741;28;20456;-82
2021/08/29 02:44:34;;;;;;;28.13;22.80;;;;;;;19.53;100.00;94248.94;5073609;28;20497;-82
2021/08/29 02:47:02;;;;;;;30.67;22.00;;;;;;;19.60;100.00;94247.97;5023681;28;20447;-82
2021/08/29 02:49:30;;;;;;;26.37;21.50;;;;;;;19.69;100.00;94249.44;5040043;28;20507;-82
2021/08/29 02:51:57;;;;;;;25.70;21.00;;;;;;;19.75;100.00;94264.59;5074843;28;20840;-82
2021/08/29 02:54:28;;;;;;;25.13;21.90;;;;;;;19.82;100.00;94269.13;5039541;28;20437;-82
2021/08/29 02:56:57;;;;;;;31.30;22.93;;;;;;;19.87;100.00;94256.84;5074470;28;20487;-82
2021/08/29 02:59:24;;;;;;;24.33;20.60;;;;;;;19.96;100.00;94255.63;5075477;28;20433;-82
2021/08/29 03:01:51;;;;;;;23.80;20.97;;;;;;;20.02;100.00;94254.81;5023077;28;20437;-82
2021/08/29 03:04:19;;;;;;;27.50;21.37;;;;;;;20.07;100.00;94256.88;5074641;28;20447;-82
2021/08/29 03:06:46;;;;;;;29.90;21.77;;;;;;;20.13;100.00;94261.38;5074323;28;20443;-82
2021/08/29 03:09:13;;;;;;;31.23;21.40;;;;;;;20.17;100.00;94259.13;5056053;28;20809;-81
2021/08/29 03:18:25;;;;;;;25.70;19.67;;;;;;;20.11;100.00;94290.88;5073286;28;20432;-82
2021/08/29 03:20:53;;;;;;;23.67;18.20;;;;;;;20.02;100.00;94272.66;5073915;28;20445;-82
2021/08/29 03:23:20;;;;;;;20.00;17.67;;;;;;;19.97;100.00;94259.13;5073925;28;20793;-82
2021/08/29 03:25:47;;;;;;;24.10;19.60;;;;;;;20.04;100.00;94278.59;5074277;28;20797;-82
2021/08/29 03:28:15;;;;;;;28.10;20.50;;;;;;;20.08;100.00;94274.50;5074034;28;20452;-81
2021/08/29 03:30:42;;;;;;;24.87;19.90;;;;;;;20.08;100.00;94279.81;5073957;28;20575;-81
2021/08/29 03:33:09;;;;;;;26.63;19.53;;;;;;;19.94;100.00;94256.84;5073996;28;20437;-81
2021/08/29 03:35:37;;;;;;;31.03;20.83;;;;;;;19.77;100.00;94246.59;5073711;28;20516;-82
2021/08/29 03:44:48;;;;;;;30.43;22.80;;;;;;;19.06;100.00;94200.06;5073006;28;20474;-82
2021/08/29 03:47:16;;;;;;;26.60;20.87;;;;;;;18.91;100.00;94204.72;5073616;28;20916;-82
2021/08/29 03:49:44;;;;;;;29.27;21.70;;;;;;;19.11;100.00;94217.09;5055379;28;20965;-82
2021/08/29 03:52:14;;;;;;;30.40;20.27;;;;;;;19.26;100.00;94226.75;5074097;28;20503;-82
2021/08/29 03:54:42;;;;;;;27.13;21.30;;;;;;;19.35;100.00;94229.03;5073385;28;20843;-82
2021/08/29 03:57:09;;;;;;;28.10;20.77;;;;;;;19.39;100.00;94238.28;5073825;28;20487;-82
2021/08/29 03:59:37;;;;;;;22.80;19.97;;;;;;;19.46;100.00;94248.94;5073689;28;20504;-82
2021/08/29 04:02:05;;;;;;;25.03;20.80;;;;;;;19.44;100.00;94245.66;5055090;28;20454;-82
2021/08/29 04:04:32;;;;;;;25.10;19.77;;;;;;;19.43;100.00;94257.31;5073903;28;20455;-82
2021/08/29 04:07:02;;;;;;;26.37;20.70;;;;;;;19.47;100.00;94261.22;5073712;28;20436;-82
2021/08/29 04:09:33;;;;;;;27.27;21.63;;;;;;;19.47;100.00;94266.53;5073655;28;20440;-82
2021/08/29 04:12:01;;;;;;;25.63;21.47;;;;;;;19.49;100.00;94267.97;5073182;28;20554;-82
2021/08/29 04:14:29;;;;;;;27.87;20.93;;;;;;;19.55;100.00;94271.72;5073588;28;20536;-82
2021/08/29 04:16:57;;;;;;;28.33;21.50;;;;;;;19.50;100.00;94264.28;5074170;28;20774;-82
2021/08/29 04:19:26;;;;;;;24.13;19.10;;;;;;;19.52;100.00;94269.41;5073193;28;20923;-82
2021/08/29 04:21:54;;;;;;;28.67;17.67;;;;;;;19.53;100.00;94270.25;5073352;28;20445;-82
2021/08/29 04:24:21;;;;;;;22.03;15.00;;;;;;;19.53;100.00;94271.09;5073632;28;20435;-81
2021/08/29 04:26:49;;;;;;;13.90;12.20;;;;;;;19.52;100.00;94279.25;5054786;28;20531;-83
2021/08/29 04:29:17;;;;;;;15.20;13.40;;;;;;;19.48;100.00;94278.81;5073404;28;20540;-82
2021/08/29 04:31:48;;;;;;;13.77;12.37;;;;;;;19.42;100.00;94271.66;5073743;28;20494;-82
2021/08/29 04:34:15;;;;;;;13.13;9.67;;;;;;;19.39;100.00;94275.53;5073886;28;20522;-87
2021/08/29 04:36:42;;;;;;;14.70;10.70;;;;;;;19.36;100.00;94285.72;5038718;28;20500;-82
2021/08/29 04:39:09;;;;;;;12.83;9.70;;;;;;;19.38;100.00;94299.69;5073154;28;20529;-82
2021/08/29 04:41:36;;;;;;;10.73;9.20;;;;;;;19.41;100.00;94292.09;5072914;28;20960;-82
2021/08/29 04:44:07;;;;;;;7.97;7.27;;;;;;;19.45;100.00;94295.19;5073359;28;20451;-81
2021/08/29 04:46:34;;;;;;;8.40;7.50;;;;;;;19.44;100.00;94307.69;5073294;28;20451;-83
2021/08/29 04:49:01;;;;;;;9.03;8.10;;;;;;;19.43;100.00;94305.22;5073182;28;20781;-82
2021/08/29 04:51:30;;;;;;;11.67;9.07;;;;;;;19.35;100.00;94316.00;5073253;28;20480;-82
2021/08/29 04:53:57;;;;;;;12.90;7.80;;;;;;;19.25;100.00;94305.75;5073166;28;20530;-82
2021/08/29 04:56:24;;;;;;;9.17;8.27;;;;;;;19.16;100.00;94290.97;5038003;28;20554;-81
2021/08/29 04:58:51;;;;;;;10.33;9.23;;;;;;;19.02;100.00;94273.28;5073408;28;20436;-83
2021/08/29 05:01:20;;;;;;;9.87;8.93;;;;;;;18.89;100.00;94268.72;5073357;28;20429;-82
2021/08/29 05:03:47;;;;;;;10.73;9.70;;;;;;;18.80;100.00;94270.72;5021969;28;20482;-82
2021/08/29 05:06:14;;;;;;;11.80;10.60;;;;;;;18.91;100.00;94266.69;5071995;28;20433;-82
2021/08/29 05:08:41;;;;;;;11.70;9.57;;;;;;;18.86;100.00;94261.16;5075187;28;20646;-85
2021/08/29 05:11:08;;;;;;;11.60;10.40;;;;;;;18.73;100.00;94258.41;5077038;28;20481;-83
2021/08/29 05:13:35;;;;;;;12.00;10.80;;;;;;;18.75;100.00;94261.69;5076975;28;20522;-83
2021/08/29 05:16:02;;;;;;;16.43;10.50;;;;;;;18.79;100.00;94265.59;5041530;28;20854;-83
2021/08/29 05:18:31;;;;;;;13.50;10.60;;;;;;;18.78;100.00;94266.59;5078603;28;20337;-85
2021/08/29 05:20:58;;;;;;;12.67;11.47;;;;;;;18.84;100.00;94268.50;5077608;28;20270;-81
2021/08/29 05:23:25;;;;;;;13.93;11.97;;;;;;;18.91;100.00;94272.00;5076831;28;20452;-82
2021/08/29 05:25:52;;;;;;;16.60;11.67;;;;;;;19.00;100.00;94275.31;5077051;28;21009;-82
2021/08/29 05:28:20;;;;;;;14.07;12.60;;;;;;;18.92;100.00;94280.81;5077045;28;20823;-84
2021/08/29 05:30:47;;;;;;;15.77;13.33;;;;;;;18.92;100.00;94281.63;5076771;28;20457;-81
2021/08/29 05:33:13;;;;;;;18.70;12.63;;;;;;;18.92;100.00;94289.59;5076615;28;20528;-82
2021/08/29 05:35:42;;;;;;;14.10;12.70;;;;;;;18.96;100.00;94293.50;5076140;28;20443;-82
2021/08/29 05:38:09;;;;;;;19.20;13.87;;;;;;;19.01;100.00;94288.41;5076169;28;20451;-82
2021/08/29 05:40:36;;;;;;;14.67;13.17;;;;;;;19.10;100.00;94289.94;5076065;28;20469;-82
2021/08/29 05:43:03;;;;;;;16.57;14.77;;;;;;;19.18;100.00;94283.63;5073852;28;20440;-82
2021/08/29 05:45:30;;;;;;;15.23;13.67;;;;;;;19.19;100.00;94291.41;5076194;28;20524;-82
2021/08/29 05:47:57;;;;;;;14.90;13.37;;;;;;;19.23;100.00;94297.13;5040335;28;20950;-83
2021/08/29 05:50:24;;;;;;;16.17;13.17;;;;;;;19.27;100.00;94293.06;5075489;28;20540;-82
2021/08/29 05:52:52;;;;;;;16.23;14.57;;;;;;;19.26;100.00;94286.09;5075544;28;20487;-82
2021/08/29 05:55:19;;;;;;;21.60;14.30;;;;;;;19.25;100.00;94281.78;5075587;28;20483;-81
2021/08/29 05:57:46;;;;;;;16.30;13.53;;;;;;;19.28;100.00;94283.25;5075339;28;20436;-83
2021/08/29 06:00:14;;;;;;;15.63;14.03;;;;;;;19.27;100.00;94271.78;5075747;28;20812;-85
2021/08/29 06:02:41;;;;;;;19.97;16.03;;;;;;;19.16;100.00;94273.16;5075829;28;20940;-82
2021/08/29 06:05:08;;;;;;;23.80;17.93;;;;;;;19.17;100.00;94279.31;5040922;28;20531;-82
2021/08/29 06:07:35;;;;;;;19.33;15.60;;;;;;;19.14;100.00;94271.72;5040332;28;20440;-83
2021/08/29 06:10:04;;;;;;;22.63;16.07;;;;;;;19.13;100.00;94276.22;5075905;28;20443;-81
2021/08/29 06:12:31;;;;;;;22.80;15.70;;;;;;;19.17;100.00;94280.13;5076028;28;20928;-84
2021/08/29 06:14:58;;;;;;;17.90;16.00;;;;;;;19.17;100.00;94277.47;5074749;28;20444;-81
2021/08/29 06:17:25;;;;;;;18.30;16.43;;;;;;;19.19;100.00;94275.44;5040048;28;20446;-82
2021/08/29 06:19:52;;;;;;;20.57;17.43;;;;;;;19.18;100.00;94273.78;5075071;28;20442;-82
2021/08/29 06:22:19;;;;;;;19.57;17.47;;;;;;;19.20;100.00;94273.59;5024075;28;20433;-81
2021/08/29 06:24:46;;;;;;;16.93;14.67;;;;;;;19.05;100.00;94265.72;5073033;28;20457;-81
2021/08/29 06:27:14;;;;;;;16.60;14.50;;;;;;;19.03;100.00;94274.94;5059939;28;20456;-84
2021/08/29 06:29:43;;;;;;;15.33;13.53;;;;;;;19.30;100.00;94275.88;5056229;28;20451;-82
2021/08/29 06:32:10;;;;;;;15.43;13.93;;;;;;;19.77;100.00;94275.88;5075400;28;20569;-82
2021/08/29 06:34:37;;;;;;;14.63;13.20;;;;;;;20.16;100.00;94276.94;5040534;28;20444;-82
2021/08/29 06:37:04;;;;;;;17.23;15.43;;;;;;;20.51;99.93;94282.09;5075349;28;20453;-82
2021/08/29 06:39:36;;;;;;;16.00;12.43;;;;;;;20.63;94.84;94277.81;5067072;28;20967;-81
2021/08/29 06:42:04;;;;;;;16.83;14.43;;;;;;;20.08;94.65;94275.31;5072862;28;20437;-82
2021/08/29 06:44:32;;;;;;;16.27;13.87;;;;;;;19.98;95.86;94285.56;5075103;28;20540;-81
2021/08/29 06:46:59;;;;;;;19.47;14.77;;;;;;;19.91;96.42;94287.34;5064094;28;20819;-82
2021/08/29 06:49:26;;;;;;;15.50;13.50;;;;;;;19.83;97.65;94300.88;5074669;28;20448;-82
2021/08/29 06:51:53;;;;;;;14.73;13.20;;;;;;;19.79;98.31;94308.44;5074492;28;20575;-82
2021/08/29 06:54:20;;;;;;;14.77;13.37;;;;;;;19.75;98.85;94309.03;5075000;28;20436;-82
2021/08/29 06:56:47;;;;;;;15.13;13.53;;;;;;;19.66;99.64;94288.94;5074560;28;20479;-81
2021/08/29 06:59:13;;;;;;;18.17;14.70;;;;;;;19.49;100.00;94293.78;5074598;28;20881;-81
2021/08/29 07:01:42;;;;;;;20.47;14.83;;;;;;;19.33;100.00;94292.25;5074373;28;20433;-82
2021/08/29 07:04:09;;;;;;;15.53;14.03;;;;;;;19.31;100.00;94286.31;5072120;28;20809;-81
2021/08/29 07:06:36;;;;;;;17.07;13.90;;;;;;;19.30;100.00;94294.50;5055576;28;20445;-82
2021/08/29 07:09:03;;;;;;;16.60;14.80;;;;;;;19.27;100.00;94287.72;5012968;28;20450;-82
2021/08/29 07:11:30;;;;;;;17.20;15.30;;;;;;;19.22;100.00;94290.19;5002887;28;20861;-82
2021/08/29 07:13:57;;;;;;;20.90;17.70;;;;;;;19.23;100.00;94288.34;5054145;28;20444;-82
2021/08/29 07:16:24;;;;;;;18.77;16.77;;;;;;;19.13;100.00;94292.19;5053771;28;20456;-82
2021/08/29 07:18:53;;;;;;;17.77;15.60;;;;;;;19.11;100.00;94283.59;5035190;28;20444;-82
2021/08/29 07:21:20;;;;;;;23.27;20.10;;;;;;;19.21;100.00;94291.19;5053833;28;20448;-81
2021/08/29 07:23:47;;;;;;;19.60;17.30;;;;;;;19.23;100.00;94291.81;5053631;28;20528;-81
2021/08/29 07:26:14;;;;;;;20.57;17.50;;;;;;;19.30;100.00;94297.97;5054139;28;20428;-82
2021/08/29 07:28:42;;;;;;;18.83;16.83;;;;;;;19.37;100.00;94304.16;5053945;28;20453;-83
2021/08/29 07:31:09;;;;;;;18.20;16.27;;;;;;;19.39;100.00;94315.44;5053549;28;20456;-81
2021/08/29 07:33:36;;;;;;;20.57;16.00;;;;;;;19.39;100.00;94315.44;5018603;28;20579;-82
2021/08/29 07:36:05;;;;;;;20.03;16.07;;;;;;;19.37;100.00;94300.66;5054140;28;20528;-83
2021/08/29 07:38:32;;;;;;;20.80;17.23;;;;;;;19.35;100.00;94281.41;5053491;28;20929;-83
2021/08/29 07:40:59;;;;;;;22.47;16.73;;;;;;;19.35;100.00;94274.25;5053946;28;20441;-82
2021/08/29 07:43:26;;;;;;;22.23;18.00;;;;;;;19.26;100.00;94283.44;5053947;28;20517;-82
2021/08/29 07:45:53;;;;;;;20.90;17.37;;;;;;;19.29;100.00;94295.50;5053614;28;20844;-82
2021/08/29 07:48:20;;;;;;;20.80;17.70;;;;;;;19.29;100.00;94300.84;5053277;28;21020;-81
2021/08/29 07:50:47;;;;;;;25.17;18.87;;;;;;;19.23;100.00;94302.47;5053478;28;20977;-80
2021/08/29 07:53:16;;;;;;;20.80;17.00;;;;;;;19.19;100.00;94299.38;5053590;28;20494;-81
2021/08/29 07:55:43;;;;;;;24.37;17.80;;;;;;;19.22;100.00;94292.00;5053570;28;20580;-82
2021/08/29 07:58:10;;;;;;;19.10;16.20;;;;;;;19.11;100.00;94291.56;5053364;28;20906;-81
2021/08/29 08:00:37;;;;;;;19.13;17.23;;;;;;;19.14;100.00;94299.16;5052895;28;20527;-81
2021/08/29 08:03:04;;;;;;;21.37;17.93;;;;;;;19.14;100.00;94301.00;5053313;28;20445;-81
2021/08/29 08:05:31;;;;;;;21.53;16.97;;;;;;;19.18;100.00;94302.22;5053024;28;20445;-81
2021/08/29 08:07:59;;;;;;;21.23;19.03;;;;;;;19.20;100.00;94297.53;5035085;28;20450;-81
2021/08/29 08:10:28;;;;;;;20.67;17.90;;;;;;;19.25;100.00;94288.97;5002543;28;20459;-81
2021/08/29 08:12:55;;;;;;;21.17;18.87;;;;;;;19.27;100.00;94293.06;5052919;28;20492;-81
2021/08/29 08:15:22;;;;;;;24.97;19.60;;;;;;;18.98;100.00;94296.78;5053394;28;20973;-81
2021/08/29 08:17:49;;;;;;;24.57;19.10;;;;;;;18.92;100.00;94288.78;5053499;28;20437;-81
2021/08/29 08:20:16;;;;;;;24.77;19.37;;;;;;;19.02;100.00;94284.75;5053209;28;20520;-81
2021/08/29 08:22:44;;;;;;;22.53;18.20;;;;;;;19.14;100.00;94285.84;5053963;28;20437;-82
2021/08/29 08:25:11;;;;;;;20.50;18.40;;;;;;;19.29;100.00;94298.19;5053243;28;20487;-79
2021/08/29 08:27:40;;;;;;;20.30;17.77;;;;;;;19.56;100.00;94294.63;5053676;28;20964;-82
2021/08/29 08:30:09;;;;;;;24.20;21.60;;;;;;;20.00;100.00;94290.66;5053205;28;20449;-81
2021/08/29 08:32:35;;;;;;;20.73;18.53;;;;;;;20.35;100.00;94286.00;5053448;28;20513;-82
2021/08/29 08:35:03;;;;;;;20.70;18.50;;;;;;;20.46;100.00;94287.25;5053047;28;20437;-82
2021/08/29 08:37:30;;;;;;;21.73;19.63;;;;;;;20.50;100.00;94294.63;5053142;28;20929;-82
2021/08/29 08:39:57;;;;;;;18.33;16.40;;;;;;;20.63;98.67;94283.16;5053487;28;20915;-82
2021/08/29 08:45:48;;;;;;;23.53;18.60;;;;;;;20.96;95.95;94269.75;5057307;28;20967;-82
2021/08/29 08:48:15;;;;;;;23.90;20.63;;;;;;;21.09;96.77;94268.88;5057309;28;20807;-82
2021/08/29 08:50:47;;;;;;;21.07;18.90;;;;;;;21.26;95.20;94275.44;5057216;28;20442;-83
2021/08/29 08:53:18;;;;;;;20.43;18.13;;;;;;;21.30;93.48;94274.00;5038701;28;20481;-82
2021/08/29 08:55:46;;;;;;;23.53;18.93;;;;;;;21.57;92.95;94283.53;5057244;28;20478;-83
2021/08/29 08:58:16;;;;;;;20.50;17.93;;;;;;;21.66;90.72;94286.78;5056718;28;20435;-81
2021/08/29 09:00:44;;;;;;;21.73;19.43;;;;;;;21.69;91.02;94290.91;5056841;28;20460;-83
2021/08/29 09:03:13;;;;;;;23.83;20.10;;;;;;;21.55;91.17;94282.94;5057366;28;20433;-81
2021/08/29 09:05:40;;;;;;;23.17;20.67;;;;;;;21.44;91.76;94282.78;5057179;28;20522;-80
2021/08/29 09:08:07;;;;;;;25.30;21.03;;;;;;;21.47;92.70;94280.50;5056854;28;20596;-81
2021/08/29 09:10:35;;;;;;;20.47;18.30;;;;;;;21.57;91.99;94275.53;5056817;28;20912;-81
2021/08/29 09:13:04;;;;;;;27.90;21.03;;;;;;;21.56;90.60;94276.56;5056694;28;20498;-82
2021/08/29 09:15:31;;;;;;;20.90;18.20;;;;;;;21.53;92.77;94274.31;5057047;28;20434;-80
2021/08/29 09:17:59;;;;;;;21.30;18.97;;;;;;;21.46;91.97;94281.53;5056447;28;20455;-81
2021/08/29 09:20:29;;;;;;;24.03;19.30;;;;;;;21.39;92.70;94272.72;5056772;28;20794;-85
2021/08/29 09:22:58;;;;;;;23.67;18.97;;;;;;;21.40;92.32;94270.91;5056333;28;21300;-87
2021/08/29 09:25:27;;;;;;;20.97;18.43;;;;;;;21.48;92.40;94262.63;5056955;28;20787;-84
2021/08/29 09:34:37;;;;;;;24.80;19.30;;;;;;;22.44;88.30;94259.81;5055346;28;20460;-83
2021/08/29 09:37:05;;;;;;;23.93;19.63;;;;;;;22.63;86.36;94274.88;5056421;28;20517;-83
2021/08/29 09:39:32;;;;;;;19.83;17.47;;;;;;;22.60;83.85;94272.63;5021333;28;21279;-84
2021/08/29 09:42:03;;;;;;;22.80;17.27;;;;;;;22.62;85.61;94265.22;5056515;28;20922;-82
2021/08/29 09:51:13;;;;;;;21.50;17.80;;;;;;;22.21;86.64;94268.41;5056032;28;20383;-81
2021/08/29 09:53:46;;;;;;;19.37;16.83;;;;;;;22.13;88.02;94260.66;5055098;28;21062;-82
2021/08/29 09:56:21;;;;;;;19.30;15.70;;;;;;;21.75;86.71;94253.47;5056314;28;20486;-82
2021/08/29 09:58:48;;;;;;;17.70;14.93;;;;;;;21.85;88.02;94266.34;5055658;28;20439;-82
2021/08/29 10:01:16;;;;;;;18.80;16.80;;;;;;;21.87;88.61;94262.44;5055615;28;20437;-82
2021/08/29 10:03:44;;;;;;;17.33;15.47;;;;;;;21.69;86.90;94267.69;5055540;28;20444;-82
2021/08/29 10:06:22;;;;;;;18.60;15.30;;;;;;;21.64;87.76;94259.47;5054829;28;20531;-82
2021/08/29 10:08:52;;;;;;;20.10;15.50;;;;;;;21.54;86.99;94262.59;5019771;28;20448;-82
2021/08/29 10:11:20;;;;;;;18.20;16.30;;;;;;;21.62;88.97;94256.19;5054581;28;20454;-83
2021/08/29 10:13:48;;;;;;;20.80;17.93;;;;;;;21.59;89.51;94256.63;5054419;28;20492;-82
2021/08/29 10:16:16;;;;;;;20.03;17.50;;;;;;;21.57;90.25;94259.50;5054523;28;20442;-82
2021/08/29 10:18:46;;;;;;;26.00;19.10;;;;;;;21.60;89.75;94264.41;5054573;28;20454;-82
2021/08/29 10:21:15;;;;;;;22.57;19.10;;;;;;;21.57;91.10;94256.84;5054845;28;20453;-82
2021/08/29 10:23:44;;;;;;;28.67;21.20;;;;;;;21.52;90.62;94251.31;5054294;28;20448;-82
2021/08/29 10:26:14;;;;;;;22.30;19.73;;;;;;;21.51;90.10;94263.03;5054123;28;21014;-82
2021/08/29 10:28:46;;;;;;;23.80;19.40;;;;;;;21.54;90.66;94253.78;5019091;28;20475;-83
2021/08/29 10:31:16;;;;;;;22.40;19.70;;;;;;;21.54;90.09;94259.94;5054524;28;20546;-82
2021/08/29 10:33:47;;;;;;;20.07;17.63;;;;;;;21.58;90.49;94246.97;5054056;28;21004;-82
2021/08/29 10:36:16;;;;;;;27.73;19.93;;;;;;;21.60;90.52;94255.59;5054310;28;20450;-82
2021/08/29 10:38:44;;;;;;;21.77;17.63;;;;;;;21.67;90.89;94258.22;5054187;28;20451;-82
2021/08/29 10:41:16;;;;;;;22.80;19.13;;;;;;;21.75;90.43;94260.66;5054140;28;20529;-83
2021/08/29 10:43:43;;;;;;;23.70;21.10;;;;;;;21.91;92.53;94249.44;5054268;28;20449;-82
2021/08/29 10:46:14;;;;;;;25.03;20.13;;;;;;;21.99;90.25;94249.22;5054370;28;20448;-83
2021/08/29 10:48:43;;;;;;;21.00;17.40;;;;;;;22.12;88.68;94249.16;5053971;28;20850;-83
2021/08/29 10:51:11;;;;;;;21.13;18.60;;;;;;;22.22;86.15;94249.47;5053743;28;20450;-83
2021/08/29 10:53:41;;;;;;;21.80;19.50;;;;;;;22.43;88.51;94244.78;5053848;28;20484;-83
2021/08/29 10:56:35;;;;;;;22.33;16.33;;;;;;;22.61;88.27;94247.53;5053643;28;20558;-82
2021/08/29 10:59:29;;;;;;;20.40;18.30;;;;;;;22.59;86.24;94246.94;5053685;28;20454;-83
2021/08/29 11:02:11;;;;;;;20.60;18.20;;;;;;;22.64;85.92;94233.72;5053754;28;20933;-83
2021/08/29 11:04:45;;;;;;;21.53;18.80;;;;;;;22.92;87.78;94224.41;5053761;28;20475;-83
2021/08/29 11:07:12;;;;;;;35.83;20.37;;;;;;;23.01;83.50;94234.59;5052944;28;20739;-82
2021/08/29 11:09:46;;;;;;;20.03;17.43;;;;;;;23.08;84.55;94234.50;5053577;28;20524;-83
2021/08/29 11:12:33;;;;;;;20.40;16.30;;;;;;;22.97;84.01;94233.41;5053398;28;20475;-83
2021/08/29 11:15:05;;;;;;;19.43;17.37;;;;;;;22.96;84.89;94225.59;5034452;28;20530;-82
2021/08/29 11:17:34;;;;;;;21.53;17.97;;;;;;;23.08;86.11;94229.16;5053222;28;20453;-83
2021/08/29 11:20:13;;;;;;;20.50;17.73;;;;;;;23.22;85.34;94240.56;5053862;28;20525;-83
2021/08/29 11:22:41;;;;;;;21.97;17.90;;;;;;;23.34;82.51;94231.53;5018301;28;20443;-83
2021/08/29 11:25:20;;;;;;;21.17;18.03;;;;;;;23.57;83.89;94222.84;5018319;28;20446;-83
2021/08/29 11:28:07;;;;;;;21.57;18.53;;;;;;;23.64;80.98;94234.28;5053180;28;20454;-83
2021/08/29 11:30:45;;;;;;;21.33;18.27;;;;;;;23.63;80.75;94226.47;5053394;28;20514;-82
2021/08/29 11:33:13;;;;;;;18.70;16.80;;;;;;;23.56;81.37;94231.09;5052985;28;20482;-83
2021/08/29 11:35:47;;;;;;;19.70;16.63;;;;;;;23.60;81.30;94229.59;5053331;28;20440;-83
2021/08/29 11:38:16;;;;;;;21.60;17.90;;;;;;;23.49;81.72;94226.63;5052894;28;20530;-82
2021/08/29 11:41:12;;;;;;;21.73;17.77;;;;;;;23.51;81.58;94233.63;5052986;28;20535;-83
2021/08/29 11:43:43;;;;;;;20.90;17.10;;;;;;;23.47;80.38;94228.72;5001362;28;20445;-83
2021/08/29 11:46:14;;;;;;;23.43;17.27;;;;;;;23.49;80.38;94231.97;5034649;28;20520;-82
2021/08/29 11:48:50;;;;;;;18.57;16.23;;;;;;;23.56;82.07;94233.78;5052735;28;20513;-83
2021/08/29 11:51:24;;;;;;;19.80;17.37;;;;;;;23.49;81.11;94229.31;5052944;28;21022;-83
2021/08/29 11:53:51;;;;;;;19.90;17.87;;;;;;;23.48;82.08;94230.34;5052440;28;21019;-83
2021/08/29 11:56:19;;;;;;;23.97;19.07;;;;;;;23.41;81.29;94221.56;5052985;28;20485;-83
2021/08/29 11:58:48;;;;;;;21.33;18.80;;;;;;;23.40;82.19;94211.06;5052756;28;20458;-82